createdAt,value
2023-05-24T00:00:11.295Z,45.50
2023-05-24T00:01:14.467Z,45.50
2023-05-24T00:02:16.933Z,45.60
2023-05-24T00:03:21.605Z,46.50
2023-05-24T00:04:30.398Z,45.30
2023-05-24T00:05:33.483Z,45.80
2023-05-24T00:06:37.257Z,44.50
2023-05-24T00:07:39.864Z,44.00
2023-05-24T00:08:42.348Z,43.70
2023-05-24T00:09:45.486Z,44.10
2023-05-24T00:10:48.483Z,43.70
2023-05-24T00:11:51.376Z,43.50
2023-05-24T00:12:53.843Z,43.70
2023-05-24T00:13:56.426Z,43.90
2023-05-24T00:14:59.010Z,43.90
2023-05-24T00:16:01.502Z,44.00
2023-05-24T00:17:04.144Z,43.80
2023-05-24T00:18:07.522Z,43.80
2023-05-24T00:19:11.341Z,43.80
2023-05-24T00:20:14.757Z,43.70
2023-05-24T00:21:17.323Z,43.50
2023-05-24T00:22:21.672Z,43.70
2023-05-24T00:23:25.487Z,44.30
2023-05-24T00:24:28.755Z,43.70
2023-05-24T00:25:31.505Z,43.50
2023-05-24T00:26:34.521Z,44.10
2023-05-24T00:27:38.862Z,44.10
2023-05-24T00:28:41.349Z,44.30
2023-05-24T00:29:43.939Z,44.40
2023-05-24T00:30:46.362Z,44.60
2023-05-24T00:31:48.880Z,44.10
2023-05-24T00:32:51.711Z,44.10
2023-05-24T00:33:54.514Z,44.40
2023-05-24T00:34:57.021Z,44.40
2023-05-24T00:35:59.464Z,44.60
2023-05-24T00:37:01.970Z,44.70
2023-05-24T00:38:04.619Z,44.70
2023-05-24T00:39:07.044Z,44.60
2023-05-24T00:40:10.013Z,44.70
2023-05-24T00:41:12.804Z,44.70
2023-05-24T00:42:15.420Z,44.70
2023-05-24T00:43:19.098Z,44.80
2023-05-24T00:44:21.532Z,44.40
2023-05-24T00:45:25.065Z,44.30
2023-05-24T00:46:30.673Z,44.50
2023-05-24T00:47:34.356Z,44.50
2023-05-24T00:48:36.831Z,44.40
2023-05-24T00:49:40.088Z,44.20
2023-05-24T00:50:42.960Z,44.40
2023-05-24T00:51:45.934Z,44.20
2023-05-24T00:52:51.301Z,44.30
2023-05-24T00:53:54.340Z,44.20
2023-05-24T00:54:56.792Z,44.10
2023-05-24T00:56:00.155Z,44.30
2023-05-24T00:57:02.898Z,44.40
2023-05-24T00:58:05.465Z,44.20
2023-05-24T00:59:08.342Z,44.30
2023-05-24T01:00:11.506Z,44.20
2023-05-24T01:01:14.509Z,44.30
2023-05-24T01:02:18.458Z,44.20
2023-05-24T01:03:22.513Z,44.10
2023-05-24T01:04:26.111Z,44.00
2023-05-24T01:05:28.666Z,44.10
2023-05-24T01:06:44.901Z,44.10
2023-05-24T01:08:11.759Z,44.30
2023-05-24T01:09:25.866Z,44.40
2023-05-24T01:10:38.904Z,44.40
2023-05-24T01:12:06.723Z,44.50
2023-05-24T01:13:35.333Z,44.50
2023-05-24T01:14:59.987Z,44.50
2023-05-24T01:16:12.773Z,44.60
2023-05-24T01:17:27.377Z,44.70
2023-05-24T01:18:38.938Z,44.70
2023-05-24T01:19:44.727Z,45.30
2023-05-24T01:20:50.480Z,44.80
2023-05-24T01:22:12.346Z,44.80
2023-05-24T01:23:31.878Z,44.90
2023-05-24T01:24:53.844Z,45.00
2023-05-24T01:26:17.561Z,44.90
2023-05-24T01:27:22.978Z,45.00
2023-05-24T01:28:27.752Z,44.90
2023-05-24T01:29:32.526Z,44.90
2023-05-24T01:30:36.403Z,44.90
2023-05-24T01:31:38.992Z,44.90
2023-05-24T01:32:41.908Z,45.00
2023-05-24T01:33:45.315Z,45.00
2023-05-24T01:34:47.888Z,45.10
2023-05-24T01:35:52.081Z,45.10
2023-05-24T01:36:54.575Z,44.90
2023-05-24T01:37:57.349Z,45.00
2023-05-24T01:39:00.425Z,45.00
2023-05-24T01:40:04.450Z,45.00
2023-05-24T01:41:32.846Z,45.00
2023-05-24T01:42:42.140Z,45.10
2023-05-24T01:43:53.359Z,45.10
2023-05-24T01:45:18.055Z,44.80
2023-05-24T01:46:47.866Z,45.20
2023-05-24T01:48:08.257Z,45.50
2023-05-24T01:49:22.585Z,45.40
2023-05-24T01:50:42.794Z,45.50
2023-05-24T01:51:51.471Z,45.30
2023-05-24T01:52:58.575Z,45.30
2023-05-24T01:54:02.100Z,45.20
2023-05-24T01:55:07.733Z,45.10
2023-05-24T01:56:12.362Z,45.10
2023-05-24T01:57:15.422Z,45.10
2023-05-24T01:58:21.142Z,45.10
2023-05-24T01:59:29.036Z,45.00
2023-05-24T02:00:32.936Z,45.00
2023-05-24T02:01:36.007Z,45.10
2023-05-24T02:02:39.818Z,45.20
2023-05-24T02:03:43.156Z,45.20
2023-05-24T02:04:46.262Z,45.20
2023-05-24T02:05:49.163Z,45.30
2023-05-24T02:06:52.496Z,45.20
2023-05-24T02:07:55.654Z,45.20
2023-05-24T02:08:59.554Z,45.10
2023-05-24T02:10:02.289Z,45.20
2023-05-24T02:11:04.821Z,45.20
2023-05-24T02:12:07.992Z,45.30
2023-05-24T02:13:11.541Z,45.30
2023-05-24T02:14:13.974Z,45.30
2023-05-24T02:15:17.458Z,45.50
2023-05-24T02:16:20.067Z,45.20
2023-05-24T02:17:25.784Z,45.30
2023-05-24T02:18:34.512Z,45.30
2023-05-24T02:19:37.713Z,45.30
2023-05-24T02:20:42.081Z,45.20
2023-05-24T02:21:47.741Z,45.20
2023-05-24T02:22:50.352Z,45.20
2023-05-24T02:23:53.565Z,45.60
2023-05-24T02:24:56.083Z,46.00
2023-05-24T02:25:58.462Z,45.90
2023-05-24T02:27:01.160Z,45.40
2023-05-24T02:28:03.682Z,45.00
2023-05-24T02:29:06.204Z,45.10
2023-05-24T02:30:09.145Z,44.50
2023-05-24T02:31:12.994Z,44.50
2023-05-24T02:32:15.574Z,44.50
2023-05-24T02:33:18.036Z,44.30
2023-05-24T02:34:21.019Z,44.70
2023-05-24T02:35:24.446Z,44.80
2023-05-24T02:36:27.579Z,44.60
2023-05-24T02:37:30.038Z,44.60
2023-05-24T02:38:32.756Z,44.80
2023-05-24T02:39:35.103Z,44.80
2023-05-24T02:40:37.754Z,44.60
2023-05-24T02:41:41.082Z,44.70
2023-05-24T02:42:44.972Z,45.00
2023-05-24T02:43:48.109Z,45.20
2023-05-24T02:44:52.537Z,44.90
2023-05-24T02:45:55.621Z,44.80
2023-05-24T02:46:58.082Z,45.20
2023-05-24T02:48:00.593Z,44.80
2023-05-24T02:49:03.177Z,44.80
2023-05-24T02:50:06.351Z,45.00
2023-05-24T02:51:08.901Z,44.60
2023-05-24T02:52:11.309Z,44.60
2023-05-24T02:53:14.142Z,44.40
2023-05-24T02:54:17.670Z,44.40
2023-05-24T02:55:20.125Z,44.00
2023-05-24T02:56:22.824Z,43.90
2023-05-24T02:57:25.432Z,43.80
2023-05-24T02:58:29.055Z,43.80
2023-05-24T02:59:32.292Z,44.00
2023-05-24T03:00:34.831Z,44.00
2023-05-24T03:01:37.392Z,44.10
2023-05-24T03:02:41.169Z,44.30
2023-05-24T03:03:44.278Z,44.20
2023-05-24T03:04:47.606Z,44.20
2023-05-24T03:05:50.184Z,44.10
2023-05-24T03:06:53.607Z,44.20
2023-05-24T03:07:56.604Z,44.70
2023-05-24T03:08:59.317Z,44.40
2023-05-24T03:10:02.303Z,44.30
2023-05-24T03:11:04.952Z,44.20
2023-05-24T03:12:07.621Z,44.30
2023-05-24T03:13:10.272Z,45.20
2023-05-24T03:14:13.584Z,45.00
2023-05-24T03:15:18.011Z,44.40
2023-05-24T03:16:21.569Z,44.40
2023-05-24T03:17:24.217Z,44.20
2023-05-24T03:18:26.707Z,44.20
2023-05-24T03:19:30.991Z,44.40
2023-05-24T03:20:36.903Z,44.30
2023-05-24T03:21:39.414Z,44.30
2023-05-24T03:22:42.272Z,44.80
2023-05-24T03:23:45.311Z,44.50
2023-05-24T03:24:48.706Z,44.50
2023-05-24T03:25:51.470Z,44.50
2023-05-24T03:26:54.074Z,44.90
2023-05-24T03:27:56.573Z,44.40
2023-05-24T03:28:58.981Z,44.40
2023-05-24T03:30:08.199Z,44.30
2023-05-24T03:31:20.677Z,44.20
2023-05-24T03:32:24.172Z,44.10
2023-05-24T03:33:26.738Z,44.10
2023-05-24T03:34:30.195Z,44.20
2023-05-24T03:35:32.741Z,44.60
2023-05-24T03:36:36.523Z,44.20
2023-05-24T03:37:39.237Z,44.20
2023-05-24T03:38:41.698Z,44.80
2023-05-24T03:39:44.233Z,44.40
2023-05-24T03:41:01.660Z,44.40
2023-05-24T03:42:05.732Z,44.00
2023-05-24T03:43:08.335Z,44.20
2023-05-24T03:44:21.682Z,44.20
2023-05-24T03:45:39.012Z,44.30
2023-05-24T03:46:42.429Z,44.20
2023-05-24T03:47:45.044Z,44.00
2023-05-24T03:48:48.902Z,44.00
2023-05-24T03:49:51.638Z,44.00
2023-05-24T03:50:54.149Z,44.00
2023-05-24T03:51:56.611Z,44.00
2023-05-24T03:52:59.154Z,44.10
2023-05-24T03:54:01.754Z,44.00
2023-05-24T03:55:07.045Z,44.00
2023-05-24T03:56:10.394Z,44.10
2023-05-24T03:57:12.879Z,44.10
2023-05-24T03:58:15.371Z,44.10
2023-05-24T03:59:18.484Z,44.10
2023-05-24T04:00:21.222Z,44.10
2023-05-24T04:01:33.462Z,44.10
2023-05-24T04:02:38.234Z,44.00
2023-05-24T04:03:41.507Z,44.00
2023-05-24T04:04:44.811Z,44.00
2023-05-24T04:05:51.285Z,44.00
2023-05-24T04:06:53.964Z,43.90
2023-05-24T04:07:56.594Z,44.10
2023-05-24T04:09:00.578Z,44.10
2023-05-24T04:10:07.438Z,44.00
2023-05-24T04:11:11.248Z,43.90
2023-05-24T04:12:14.371Z,43.90
2023-05-24T04:13:18.526Z,43.90
2023-05-24T04:14:22.191Z,44.20
2023-05-24T04:15:24.824Z,43.90
2023-05-24T04:16:27.693Z,44.10
2023-05-24T04:17:32.826Z,44.70
2023-05-24T04:18:35.628Z,43.80
2023-05-24T04:19:38.104Z,43.80
2023-05-24T04:20:41.489Z,43.90
2023-05-24T04:21:48.516Z,43.70
2023-05-24T04:22:52.064Z,44.60
2023-05-24T04:23:58.120Z,44.90
2023-05-24T04:25:01.426Z,45.20
2023-05-24T04:26:04.222Z,44.50
2023-05-24T04:27:08.085Z,44.20
2023-05-24T04:28:10.527Z,44.30
2023-05-24T04:29:13.433Z,44.00
2023-05-24T04:30:16.837Z,44.10
2023-05-24T04:31:20.313Z,44.40
2023-05-24T04:32:23.700Z,44.30
2023-05-24T04:33:26.351Z,44.00
2023-05-24T04:34:35.738Z,44.20
2023-05-24T04:35:40.695Z,44.10
2023-05-24T04:36:43.281Z,43.90
2023-05-24T04:37:48.350Z,44.00
2023-05-24T04:38:56.819Z,43.90
2023-05-24T04:39:59.423Z,43.80
2023-05-24T04:41:02.432Z,43.70
2023-05-24T04:42:05.205Z,43.80
2023-05-24T04:43:09.216Z,43.80
2023-05-24T04:44:12.007Z,43.80
2023-05-24T04:45:15.064Z,43.80
2023-05-24T04:46:17.553Z,43.70
2023-05-24T04:47:20.631Z,43.70
2023-05-24T04:48:24.499Z,43.80
2023-05-24T04:49:27.145Z,43.80
2023-05-24T04:50:30.134Z,43.70
2023-05-24T04:51:33.177Z,43.70
2023-05-24T04:52:36.485Z,43.70
2023-05-24T04:53:39.073Z,43.80
2023-05-24T04:54:42.097Z,43.70
2023-05-24T04:55:45.083Z,44.00
2023-05-24T04:56:48.440Z,43.90
2023-05-24T04:57:51.179Z,44.00
2023-05-24T04:58:54.273Z,43.70
2023-05-24T04:59:56.928Z,43.60
2023-05-24T05:00:59.454Z,43.70
2023-05-24T05:02:02.188Z,43.60
2023-05-24T05:03:04.761Z,44.20
2023-05-24T05:04:08.004Z,44.20
2023-05-24T05:05:10.808Z,43.40
2023-05-24T05:06:13.767Z,43.60
2023-05-24T05:07:16.671Z,43.40
2023-05-24T05:08:20.359Z,43.40
2023-05-24T05:09:24.641Z,43.60
2023-05-24T05:10:27.573Z,43.50
2023-05-24T05:11:30.052Z,43.20
2023-05-24T05:12:32.643Z,43.40
2023-05-24T05:13:35.544Z,43.20
2023-05-24T05:14:37.982Z,43.20
2023-05-24T05:15:42.721Z,43.20
2023-05-24T05:16:46.595Z,43.30
2023-05-24T05:17:49.731Z,43.30
2023-05-24T05:18:52.232Z,44.30
2023-05-24T05:19:58.674Z,45.00
2023-05-24T05:21:01.334Z,45.60
2023-05-24T05:22:04.032Z,46.20
2023-05-24T05:23:06.498Z,46.30
2023-05-24T05:24:09.124Z,46.50
2023-05-24T05:25:11.664Z,46.60
2023-05-24T05:26:14.054Z,46.40
2023-05-24T05:27:16.490Z,46.90
2023-05-24T05:28:18.977Z,47.10
2023-05-24T05:29:23.599Z,47.00
2023-05-24T05:30:26.823Z,47.10
2023-05-24T05:31:30.399Z,46.90
2023-05-24T05:32:33.062Z,47.30
2023-05-24T05:33:35.916Z,47.20
2023-05-24T05:34:38.516Z,47.20
2023-05-24T05:35:41.305Z,46.80
2023-05-24T05:36:44.056Z,47.10
2023-05-24T05:37:46.544Z,43.90
2023-05-24T05:38:49.037Z,43.10
2023-05-24T05:39:51.932Z,42.80
2023-05-24T05:40:54.464Z,43.10
2023-05-24T05:41:56.946Z,43.10
2023-05-24T05:42:59.523Z,44.60
2023-05-24T05:44:02.065Z,44.40
2023-05-24T05:45:05.779Z,45.20
2023-05-24T05:46:08.445Z,46.20
2023-05-24T05:47:11.002Z,46.20
2023-05-24T05:48:14.081Z,46.90
2023-05-24T05:49:18.500Z,46.70
2023-05-24T05:50:21.140Z,47.10
2023-05-24T05:51:23.874Z,46.90
2023-05-24T05:52:26.367Z,46.70
2023-05-24T05:53:28.945Z,46.90
2023-05-24T05:54:32.195Z,47.20
2023-05-24T05:55:34.913Z,47.20
2023-05-24T05:56:41.355Z,47.00
2023-05-24T05:57:43.816Z,47.00
2023-05-24T05:58:46.307Z,47.00
2023-05-24T05:59:48.744Z,46.90
2023-05-24T06:00:52.038Z,47.20
2023-05-24T06:01:54.462Z,48.00
2023-05-24T06:02:56.911Z,47.40
2023-05-24T06:03:59.522Z,47.40
2023-05-24T06:05:03.071Z,47.40
2023-05-24T06:06:05.887Z,47.30
2023-05-24T06:07:08.282Z,47.30
2023-05-24T06:08:10.790Z,47.50
2023-05-24T06:09:13.214Z,47.50
2023-05-24T06:10:16.988Z,47.50
2023-05-24T06:11:19.420Z,47.10
2023-05-24T06:12:21.882Z,47.10
2023-05-24T06:13:24.297Z,47.40
2023-05-24T06:14:26.810Z,47.30
2023-05-24T06:15:29.424Z,46.80
2023-05-24T06:16:32.548Z,47.00
2023-05-24T06:17:37.361Z,47.10
2023-05-24T06:18:47.375Z,46.80
2023-05-24T06:19:56.154Z,46.90
2023-05-24T06:20:58.839Z,47.10
2023-05-24T06:22:01.748Z,47.10
2023-05-24T06:23:04.292Z,47.20
2023-05-24T06:24:10.637Z,47.20
2023-05-24T06:25:19.133Z,47.30
2023-05-24T06:26:22.348Z,47.20
2023-05-24T06:27:24.828Z,46.90
2023-05-24T06:28:27.301Z,47.10
2023-05-24T06:29:29.687Z,47.10
2023-05-24T06:30:33.740Z,47.20
2023-05-24T06:31:36.906Z,47.10
2023-05-24T06:32:39.760Z,47.30
2023-05-24T06:33:46.805Z,47.30
2023-05-24T06:34:52.000Z,47.40
2023-05-24T06:35:54.446Z,47.40
2023-05-24T06:36:58.099Z,47.40
2023-05-24T06:38:00.870Z,47.50
2023-05-24T06:39:04.155Z,48.00
2023-05-24T06:40:12.084Z,47.50
2023-05-24T06:41:14.462Z,46.90
2023-05-24T06:42:16.912Z,46.90
2023-05-24T06:43:21.845Z,46.80
2023-05-24T06:44:31.872Z,47.10
2023-05-24T06:45:34.739Z,47.10
2023-05-24T06:46:37.336Z,47.30
2023-05-24T06:47:39.909Z,44.10
2023-05-24T06:48:42.402Z,43.00
2023-05-24T06:49:44.974Z,42.90
2023-05-24T06:50:47.988Z,42.90
2023-05-24T06:51:50.936Z,42.70
2023-05-24T06:52:53.861Z,43.20
2023-05-24T06:53:56.727Z,43.30
2023-05-24T06:54:59.226Z,42.80
2023-05-24T06:56:01.988Z,43.30
2023-05-24T06:57:06.061Z,42.90
2023-05-24T06:58:14.214Z,42.50
2023-05-24T06:59:16.972Z,42.60
2023-05-24T07:00:19.786Z,43.20
2023-05-24T07:01:23.177Z,43.00
2023-05-24T07:02:27.572Z,42.20
2023-05-24T07:03:30.999Z,41.90
2023-05-24T07:04:33.706Z,42.20
2023-05-24T07:05:36.771Z,42.20
2023-05-24T07:06:39.403Z,42.10
2023-05-24T07:07:43.320Z,42.70
2023-05-24T07:08:45.933Z,42.80
2023-05-24T07:09:48.405Z,43.90
2023-05-24T07:10:52.092Z,43.20
2023-05-24T07:11:56.694Z,42.60
2023-05-24T07:12:59.911Z,43.00
2023-05-24T07:14:02.605Z,43.20
2023-05-24T07:15:07.120Z,42.40
2023-05-24T07:16:09.781Z,42.60
2023-05-24T07:17:12.856Z,42.10
2023-05-24T07:18:16.534Z,42.60
2023-05-24T07:19:19.049Z,42.60
2023-05-24T07:20:21.661Z,42.50
2023-05-24T07:21:24.551Z,43.30
2023-05-24T07:22:28.863Z,43.90
2023-05-24T07:23:32.344Z,43.10
2023-05-24T07:24:34.831Z,44.00
2023-05-24T07:25:37.411Z,42.40
2023-05-24T07:26:50.198Z,42.60
2023-05-24T07:27:54.054Z,42.30
2023-05-24T07:28:57.734Z,43.00
2023-05-24T07:30:00.156Z,43.20
2023-05-24T07:31:03.453Z,44.00
2023-05-24T07:32:06.158Z,44.30
2023-05-24T07:33:08.654Z,44.10
2023-05-24T07:34:11.100Z,44.00
2023-05-24T07:35:13.758Z,44.20
2023-05-24T07:36:16.127Z,44.30
2023-05-24T07:37:19.044Z,44.20
2023-05-24T07:38:21.895Z,44.00
2023-05-24T07:39:25.246Z,44.10
2023-05-24T07:40:27.708Z,44.10
2023-05-24T07:41:30.128Z,44.60
2023-05-24T07:42:32.522Z,45.00
2023-05-24T07:43:34.883Z,44.90
2023-05-24T07:44:37.207Z,44.30
2023-05-24T07:45:39.996Z,44.70
2023-05-24T07:46:42.696Z,44.00
2023-05-24T07:47:45.278Z,42.70
2023-05-24T07:48:48.110Z,43.80
2023-05-24T07:49:50.650Z,44.60
2023-05-24T07:50:53.090Z,42.80
2023-05-24T07:51:58.278Z,42.30
2023-05-24T07:53:00.654Z,43.00
2023-05-24T07:54:03.121Z,44.00
2023-05-24T07:55:07.768Z,42.10
2023-05-24T07:56:10.140Z,42.80
2023-05-24T07:57:13.420Z,42.80
2023-05-24T07:58:16.362Z,43.60
2023-05-24T07:59:19.125Z,43.60
2023-05-24T08:00:21.786Z,42.20
2023-05-24T08:01:24.369Z,43.00
2023-05-24T08:02:27.799Z,43.10
2023-05-24T08:03:31.472Z,43.50
2023-05-24T08:04:33.912Z,44.40
2023-05-24T08:05:36.385Z,44.20
2023-05-24T08:06:39.030Z,43.80
2023-05-24T08:07:41.967Z,42.90
2023-05-24T08:08:45.903Z,42.70
2023-05-24T08:09:48.370Z,43.50
2023-05-24T08:10:50.869Z,43.60
2023-05-24T08:11:53.165Z,43.30
2023-05-24T08:12:56.161Z,43.30
2023-05-24T08:13:58.644Z,42.90
2023-05-24T08:15:01.038Z,42.50
2023-05-24T08:16:03.973Z,42.40
2023-05-24T08:17:06.411Z,42.40
2023-05-24T08:18:09.536Z,42.10
2023-05-24T08:19:11.966Z,42.30
2023-05-24T08:20:15.709Z,42.30
2023-05-24T08:21:18.363Z,43.10
2023-05-24T08:22:22.031Z,42.50
2023-05-24T08:23:24.812Z,43.10
2023-05-24T08:24:27.275Z,42.90
2023-05-24T08:25:29.767Z,42.50
2023-05-24T08:26:32.095Z,41.70
2023-05-24T08:27:34.780Z,42.10
2023-05-24T08:28:37.290Z,42.30
2023-05-24T08:29:40.013Z,42.30
2023-05-24T08:30:43.607Z,42.80
2023-05-24T08:31:46.326Z,42.00
2023-05-24T08:32:49.296Z,43.00
2023-05-24T08:33:51.961Z,42.30
2023-05-24T08:35:03.626Z,42.20
2023-05-24T08:36:13.559Z,42.30
2023-05-24T08:37:19.461Z,42.30
2023-05-24T08:38:21.894Z,42.20
2023-05-24T08:39:24.265Z,43.00
2023-05-24T08:40:26.850Z,43.30
2023-05-24T08:41:29.421Z,42.50
2023-05-24T08:42:32.114Z,43.10
2023-05-24T08:43:35.452Z,42.50
2023-05-24T08:44:59.190Z,43.40
2023-05-24T08:46:03.837Z,43.40
2023-05-24T08:47:07.576Z,43.60
2023-05-24T08:48:10.566Z,43.00
2023-05-24T08:49:14.792Z,43.00
2023-05-24T08:50:20.551Z,43.60
2023-05-24T08:51:24.262Z,43.70
2023-05-24T08:52:29.301Z,43.40
2023-05-24T08:53:33.500Z,43.70
2023-05-24T08:54:37.445Z,43.60
2023-05-24T08:55:40.185Z,43.50
2023-05-24T08:56:43.296Z,43.80
2023-05-24T08:57:46.721Z,44.50
2023-05-24T08:58:50.698Z,44.80
2023-05-24T08:59:56.393Z,45.50
2023-05-24T09:00:59.854Z,45.40
2023-05-24T09:02:04.571Z,45.20
2023-05-24T09:03:08.496Z,45.60
2023-05-24T09:04:11.741Z,45.50
2023-05-24T09:05:21.773Z,46.00
2023-05-24T09:06:25.384Z,46.00
2023-05-24T09:07:31.651Z,45.60
2023-05-24T09:08:37.442Z,45.60
2023-05-24T09:09:46.432Z,45.90
2023-05-24T09:10:55.382Z,45.80
2023-05-24T09:12:02.122Z,45.80
2023-05-24T09:13:06.983Z,45.90
2023-05-24T09:14:09.664Z,46.20
2023-05-24T09:15:12.205Z,46.00
2023-05-24T09:16:16.026Z,46.00
2023-05-24T09:17:19.145Z,46.10
2023-05-24T09:18:21.867Z,46.10
2023-05-24T09:19:24.429Z,46.20
2023-05-24T09:20:27.363Z,46.20
2023-05-24T09:21:29.797Z,46.20
2023-05-24T09:22:33.787Z,46.30
2023-05-24T09:23:37.331Z,46.30
2023-05-24T09:24:44.297Z,46.50
2023-05-24T09:25:47.882Z,46.70
2023-05-24T09:26:51.074Z,46.60
2023-05-24T09:27:54.251Z,47.10
2023-05-24T09:28:57.659Z,45.60
2023-05-24T09:30:01.715Z,42.90
2023-05-24T09:31:07.499Z,41.70
2023-05-24T09:32:10.890Z,41.20
2023-05-24T09:33:13.707Z,41.90
2023-05-24T09:34:19.623Z,42.00
2023-05-24T09:35:22.187Z,42.40
2023-05-24T09:36:24.715Z,41.80
2023-05-24T09:37:32.297Z,42.30
2023-05-24T09:38:36.452Z,43.60
2023-05-24T09:39:42.069Z,43.30
2023-05-24T09:40:45.730Z,42.50
2023-05-24T09:41:57.189Z,42.30
2023-05-24T09:43:05.759Z,42.10
2023-05-24T09:44:08.176Z,41.80
2023-05-24T09:45:12.027Z,40.00
2023-05-24T09:46:21.622Z,40.00
2023-05-24T09:47:33.155Z,41.30
2023-05-24T09:48:37.458Z,42.60
2023-05-24T09:49:40.033Z,42.30
2023-05-24T09:50:43.297Z,41.40
2023-05-24T09:51:47.548Z,41.30
2023-05-24T09:52:51.574Z,41.50
2023-05-24T09:53:57.835Z,41.00
2023-05-24T09:55:00.878Z,41.30
2023-05-24T09:56:06.266Z,40.40
2023-05-24T09:57:08.680Z,40.50
2023-05-24T09:58:12.931Z,40.50
2023-05-24T09:59:15.610Z,40.80
2023-05-24T10:00:25.036Z,40.00
2023-05-24T10:01:28.679Z,41.00
2023-05-24T10:02:41.354Z,40.70
2023-05-24T10:03:59.268Z,39.70
2023-05-24T10:05:03.690Z,39.50
2023-05-24T10:06:09.602Z,39.50
2023-05-24T10:07:13.258Z,39.00
2023-05-24T10:08:16.254Z,38.80
2023-05-24T10:09:18.810Z,38.60
2023-05-24T10:10:22.588Z,39.20
2023-05-24T10:11:25.146Z,40.30
2023-05-24T10:12:28.751Z,39.50
2023-05-24T10:13:33.770Z,39.00
2023-05-24T10:14:38.330Z,39.30
2023-05-24T10:15:41.668Z,38.20
2023-05-24T10:16:44.541Z,38.80
2023-05-24T10:17:47.265Z,39.00
2023-05-24T10:18:50.863Z,38.30
2023-05-24T10:19:53.599Z,38.40
2023-05-24T10:20:59.582Z,39.00
2023-05-24T10:22:08.414Z,39.00
2023-05-24T10:23:18.426Z,39.00
2023-05-24T10:24:25.911Z,39.00
2023-05-24T10:25:30.016Z,39.50
2023-05-24T10:26:33.761Z,40.00
2023-05-24T10:27:38.228Z,39.60
2023-05-24T10:28:45.436Z,37.80
2023-05-24T10:30:14.746Z,38.30
2023-05-24T10:31:26.831Z,38.50
2023-05-24T10:32:32.516Z,38.90
2023-05-24T10:33:40.028Z,38.90
2023-05-24T10:34:43.250Z,38.70
2023-05-24T10:35:46.417Z,38.80
2023-05-24T10:36:49.278Z,38.60
2023-05-24T10:37:52.420Z,38.70
2023-05-24T10:38:56.786Z,38.30
2023-05-24T10:40:01.192Z,38.40
2023-05-24T10:41:04.786Z,37.50
2023-05-24T10:42:09.841Z,37.10
2023-05-24T10:43:13.501Z,36.90
2023-05-24T10:44:20.037Z,37.10
2023-05-24T10:45:25.417Z,36.90
2023-05-24T10:46:28.300Z,37.80
2023-05-24T10:47:32.683Z,38.30
2023-05-24T10:48:37.217Z,38.60
2023-05-24T10:49:53.244Z,37.40
2023-05-24T10:50:56.648Z,37.30
2023-05-24T10:52:03.825Z,37.60
2023-05-24T10:53:13.628Z,37.50
2023-05-24T10:54:19.983Z,38.30
2023-05-24T10:55:22.566Z,38.10
2023-05-24T10:56:28.409Z,38.40
2023-05-24T10:57:32.903Z,38.50
2023-05-24T10:58:46.277Z,37.70
2023-05-24T10:59:48.685Z,38.10
2023-05-24T11:00:52.239Z,37.60
2023-05-24T11:01:58.188Z,37.70
2023-05-24T11:03:02.772Z,38.30
2023-05-24T11:04:11.986Z,39.30
2023-05-24T11:05:15.519Z,38.60
2023-05-24T11:06:18.527Z,38.10
2023-05-24T11:07:21.121Z,38.40
2023-05-24T11:08:28.184Z,37.90
2023-05-24T11:09:31.764Z,38.60
2023-05-24T11:10:36.034Z,38.10
2023-05-24T11:11:39.437Z,38.30
2023-05-24T11:12:45.136Z,37.70
2023-05-24T11:13:48.358Z,37.20
2023-05-24T11:14:52.998Z,38.50
2023-05-24T11:15:56.680Z,38.00
2023-05-24T11:17:02.878Z,37.90
2023-05-24T11:18:14.310Z,38.00
2023-05-24T11:19:19.333Z,38.60
2023-05-24T11:20:22.600Z,37.40
2023-05-24T11:21:26.862Z,37.20
2023-05-24T11:22:29.668Z,37.60
2023-05-24T11:23:35.419Z,37.30
2023-05-24T11:24:42.147Z,37.90
2023-05-24T11:25:47.527Z,37.90
2023-05-24T11:26:50.939Z,37.90
2023-05-24T11:27:53.811Z,38.20
2023-05-24T11:28:57.217Z,38.40
2023-05-24T11:30:01.115Z,36.40
2023-05-24T11:31:09.470Z,36.60
2023-05-24T11:32:17.192Z,36.80
2023-05-24T11:33:23.118Z,36.40
2023-05-24T11:34:27.355Z,36.60
2023-05-24T11:35:30.167Z,36.90
2023-05-24T11:36:33.592Z,36.80
2023-05-24T11:37:46.004Z,37.00
2023-05-24T11:38:50.073Z,37.30
2023-05-24T11:39:53.051Z,36.70
2023-05-24T11:40:58.500Z,36.70
2023-05-24T11:42:03.919Z,36.60
2023-05-24T11:43:06.809Z,37.00
2023-05-24T11:44:11.458Z,37.30
2023-05-24T11:45:15.610Z,37.50
2023-05-24T11:46:20.294Z,37.70
2023-05-24T11:47:23.777Z,38.20
2023-05-24T11:48:26.447Z,38.40
2023-05-24T11:49:29.290Z,38.00
2023-05-24T11:50:45.664Z,38.00
2023-05-24T11:51:48.481Z,37.90
2023-05-24T11:52:51.029Z,37.10
2023-05-24T11:53:54.838Z,37.60
2023-05-24T11:54:58.505Z,36.80
2023-05-24T11:56:01.220Z,36.70
2023-05-24T11:57:06.107Z,37.10
2023-05-24T11:58:31.492Z,37.90
2023-05-24T11:59:37.901Z,37.60
2023-05-24T12:00:42.427Z,36.80
2023-05-24T12:01:45.286Z,36.70
2023-05-24T12:02:49.081Z,37.20
2023-05-24T12:03:55.965Z,37.60
2023-05-24T12:05:09.798Z,37.10
2023-05-24T12:06:13.450Z,37.80
2023-05-24T12:07:16.694Z,38.00
2023-05-24T12:08:20.285Z,37.20
2023-05-24T12:09:23.637Z,37.80
2023-05-24T12:10:26.157Z,37.00
2023-05-24T12:11:28.561Z,38.30
2023-05-24T12:12:38.744Z,38.10
2023-05-24T12:13:48.091Z,38.20
2023-05-24T12:14:55.082Z,37.90
2023-05-24T12:15:58.293Z,38.20
2023-05-24T12:17:01.467Z,38.00
2023-05-24T12:18:04.039Z,37.90
2023-05-24T12:19:11.842Z,38.20
2023-05-24T12:20:24.094Z,38.30
2023-05-24T12:21:30.704Z,38.10
2023-05-24T12:22:33.194Z,38.70
2023-05-24T12:23:37.265Z,38.20
2023-05-24T12:24:39.731Z,38.10
2023-05-24T12:25:42.331Z,37.60
2023-05-24T12:26:48.013Z,37.60
2023-05-24T12:27:56.439Z,37.90
2023-05-24T12:29:01.396Z,37.80
2023-05-24T12:30:07.604Z,37.70
2023-05-24T12:31:10.439Z,37.60
2023-05-24T12:32:14.330Z,37.00
2023-05-24T12:33:21.430Z,37.60
2023-05-24T12:34:24.702Z,38.10
2023-05-24T12:35:27.490Z,38.70
2023-05-24T12:36:30.503Z,37.20
2023-05-24T12:37:33.740Z,37.90
2023-05-24T12:38:36.193Z,37.70
2023-05-24T12:39:39.709Z,37.10
2023-05-24T12:40:44.313Z,37.10
2023-05-24T12:41:55.128Z,37.70
2023-05-24T12:42:58.174Z,37.70
2023-05-24T12:44:00.743Z,37.40
2023-05-24T12:45:03.388Z,37.60
2023-05-24T12:46:06.977Z,37.90
2023-05-24T12:47:09.877Z,37.60
2023-05-24T12:48:12.788Z,37.60
2023-05-24T12:49:16.640Z,37.90
2023-05-24T12:50:21.990Z,38.00
2023-05-24T12:51:24.609Z,38.00
2023-05-24T12:52:27.815Z,37.40
2023-05-24T12:53:31.013Z,37.60
2023-05-24T12:54:34.454Z,37.40
2023-05-24T12:55:37.454Z,38.20
2023-05-24T12:56:40.212Z,37.80
2023-05-24T12:57:43.926Z,37.60
2023-05-24T12:58:47.532Z,38.10
2023-05-24T12:59:50.839Z,37.60
2023-05-24T13:00:54.287Z,37.30
2023-05-24T13:01:58.047Z,38.00
2023-05-24T13:03:00.906Z,38.40
2023-05-24T13:04:04.075Z,38.00
2023-05-24T13:05:08.223Z,37.70
2023-05-24T13:06:11.281Z,37.80
2023-05-24T13:07:14.537Z,38.20
2023-05-24T13:08:17.185Z,37.90
2023-05-24T13:09:22.503Z,37.90
2023-05-24T13:10:26.105Z,37.40
2023-05-24T13:11:31.208Z,38.00
2023-05-24T13:12:33.850Z,37.80
2023-05-24T13:13:36.982Z,37.50
2023-05-24T13:14:40.022Z,36.70
2023-05-24T13:15:44.607Z,37.20
2023-05-24T13:16:48.028Z,37.10
2023-05-24T13:17:51.215Z,37.90
2023-05-24T13:18:55.432Z,38.00
2023-05-24T13:19:59.989Z,38.60
2023-05-24T13:21:05.412Z,37.30
2023-05-24T13:22:08.156Z,37.90
2023-05-24T13:23:10.662Z,37.40
2023-05-24T13:24:15.893Z,37.30
2023-05-24T13:25:19.655Z,37.40
2023-05-24T13:26:22.080Z,37.70
2023-05-24T13:27:24.515Z,37.60
2023-05-24T13:28:30.461Z,37.50
2023-05-24T13:29:39.330Z,37.50
2023-05-24T13:30:45.566Z,38.10
2023-05-24T13:31:48.225Z,38.60
2023-05-24T13:32:51.327Z,37.30
2023-05-24T13:33:54.094Z,37.40
2023-05-24T13:34:57.534Z,37.40
2023-05-24T13:36:00.057Z,37.50
2023-05-24T13:37:02.528Z,36.70
2023-05-24T13:38:05.784Z,36.80
2023-05-24T13:40:15.335Z,36.70
2023-05-24T13:41:20.077Z,37.30
2023-05-24T13:42:23.116Z,36.60
2023-05-24T13:43:25.670Z,36.70
2023-05-24T13:44:28.160Z,35.40
2023-05-24T13:45:33.060Z,36.20
2023-05-24T13:46:36.409Z,36.40
2023-05-24T13:47:41.069Z,37.50
2023-05-24T13:48:44.327Z,37.10
2023-05-24T13:49:46.993Z,37.10
2023-05-24T13:50:49.583Z,37.70